Time,TemperatureF,DewpointF,PressureIn,WindDirection,WindDirectionDegrees,WindSpeedMPH,WindSpeedGustMPH,Humidity,HourlyPrecipIn,Conditions,Clouds,dailyrainin,SoftwareType,DateUTC
2013-10-12 00:10:00,59.1,57.0,30.07,NW,315,0.0,-999.0,91,-99.99,,,0.00,weatherlink.com 1.10,2013-10-12 05:10:00,
2013-10-12 00:25:00,59.4,57.0,30.07,NW,315,0.0,-999.0,90,-99.99,,,0.00,weatherlink.com 1.10,2013-10-12 05:25:00,
2013-10-12 00:40:00,59.4,57.0,30.07,NW,315,0.0,-999.0,90,-99.99,,,0.00,weatherlink.com 1.10,2013-10-12 05:40:00,
2013-10-12 00:55:00,59.0,56.0,30.07,NW,315,0.0,-999.0,90,-99.99,,,0.00,weatherlink.com 1.10,2013-10-12 05:55:00,
2013-10-12 01:10:00,59.6,56.0,30.08,NW,315,0.0,-999.0,89,-99.99,,,0.00,weatherlink.com 1.10,2013-10-12 06:10:00,
2013-10-12 01:25:00,60.3,56.0,30.08,NW,315,0.0,-999.0,86,-99.99,,,0.00,weatherlink.com 1.10,2013-10-12 06:25:00,
2013-10-12 01:40:00,59.9,56.0,30.08,NW,315,0.0,-999.0,87,-99.99,,,0.00,weatherlink.com 1.10,2013-10-12 06:40:00,
2013-10-12 01:55:00,58.9,55.0,30.08,NW,315,0.0,-999.0,88,-99.99,,,0.00,weatherlink.com 1.10,2013-10-12 06:55:00,
2013-10-12 02:10:00,58.2,55.0,30.09,NW,315,0.0,-999.0,90,-99.99,,,0.00,weatherlink.com 1.10,2013-10-12 07:10:00,
2013-10-12 02:26:00,57.8,55.0,30.08,NW,315,0.0,-999.0,90,-99.99,,,0.00,weatherlink.com 1.10,2013-10-12 07:26:00,
2013-10-12 02:41:00,57.7,55.0,30.08,NW,315,0.0,-999.0,90,-99.99,,,0.00,weatherlink.com 1.10,2013-10-12 07:41:00,
2013-10-12 02:56:00,57.2,55.0,30.08,NW,315,0.0,-999.0,91,-99.99,,,0.00,weatherlink.com 1.10,2013-10-12 07:56:00,
2013-10-12 03:11:00,56.7,54.0,30.08,NW,315,0.0,-999.0,91,-99.99,,,0.00,weatherlink.com 1.10,2013-10-12 08:11:00,
2013-10-12 03:26:00,56.5,54.0,30.08,NW,315,0.0,-999.0,91,-99.99,,,0.00,weatherlink.com 1.10,2013-10-12 08:26:00,
2013-10-12 03:41:00,55.9,53.0,30.08,NW,315,0.0,-999.0,91,-99.99,,,0.00,weatherlink.com 1.10,2013-10-12 08:41:00,
2013-10-12 03:56:00,56.3,54.0,30.09,NW,315,0.0,-999.0,91,-99.99,,,0.00,weatherlink.com 1.10,2013-10-12 08:56:00,
2013-10-12 04:11:00,56.1,54.0,30.09,NW,315,0.0,-999.0,91,-99.99,,,0.00,weatherlink.com 1.10,2013-10-12 09:11:00,
2013-10-12 04:26:00,55.9,53.0,30.09,NW,315,0.0,-999.0,91,-99.99,,,0.00,weatherlink.com 1.10,2013-10-12 09:26:00,
2013-10-12 04:41:00,55.9,53.0,30.09,NW,315,0.0,-999.0,91,-99.99,,,0.00,weatherlink.com 1.10,2013-10-12 09:41:00,
2013-10-12 04:56:00,55.8,53.0,30.09,NW,315,0.0,-999.0,91,-99.99,,,0.00,weatherlink.com 1.10,2013-10-12 09:56:00,
2013-10-12 05:11:00,55.8,53.0,30.09,NW,315,0.0,-999.0,91,-99.99,,,0.00,weatherlink.com 1.10,2013-10-12 10:11:00,
2013-10-12 05:26:00,55.6,53.0,30.10,NW,315,0.0,-999.0,91,-99.99,,,0.00,weatherlink.com 1.10,2013-10-12 10:26:00,
2013-10-12 05:41:00,55.4,53.0,30.10,NW,315,0.0,-999.0,91,-99.99,,,0.00,weatherlink.com 1.10,2013-10-12 10:41:00,
2013-10-12 05:56:00,55.0,53.0,30.11,NW,315,0.0,-999.0,91,-99.99,,,0.00,weatherlink.com 1.10,2013-10-12 10:56:00,
2013-10-12 06:11:00,54.8,52.0,30.11,NW,315,0.0,-999.0,91,-99.99,,,0.00,weatherlink.com 1.10,2013-10-12 11:11:00,
2013-10-12 06:26:00,54.3,52.0,30.11,NW,315,0.0,-999.0,91,-99.99,,,0.00,weatherlink.com 1.10,2013-10-12 11:26:00,
2013-10-12 06:41:00,53.9,51.0,30.11,NW,315,0.0,-999.0,91,-99.99,,,0.00,weatherlink.com 1.10,2013-10-12 11:41:00,
2013-10-12 06:56:00,53.4,51.0,30.12,NW,316,0.0,-999.0,91,-99.99,,,0.00,weatherlink.com 1.10,2013-10-12 11:56:00,
2013-10-12 07:11:00,53.4,51.0,30.12,NW,317,0.0,-999.0,91,-99.99,,,0.00,weatherlink.com 1.10,2013-10-12 12:11:00,
2013-10-12 07:26:00,53.6,51.0,30.13,NW,317,0.0,-999.0,91,-99.99,,,0.00,weatherlink.com 1.10,2013-10-12 12:26:00,
2013-10-12 07:41:00,54.2,52.0,30.13,NW,317,0.0,-999.0,91,-99.99,,,0.00,weatherlink.com 1.10,2013-10-12 12:41:00,
2013-10-12 07:56:00,55.2,53.0,30.14,NW,321,0.0,-999.0,91,-99.99,,,0.00,weatherlink.com 1.10,2013-10-12 12:56:00,
2013-10-12 08:11:00,56.3,54.0,30.14,NW,321,0.0,-999.0,90,-99.99,,,0.00,weatherlink.com 1.10,2013-10-12 13:11:00,
2013-10-12 08:26:00,57.9,55.0,30.14,NW,321,0.0,-999.0,91,-99.99,,,0.00,weatherlink.com 1.10,2013-10-12 13:26:00,
2013-10-12 08:41:00,60.0,57.0,30.14,NW,321,0.0,-999.0,90,-99.99,,,0.00,weatherlink.com 1.10,2013-10-12 13:41:00,
2013-10-12 08:56:00,61.4,59.0,30.15,NW,322,1.0,-999.0,91,-99.99,,,0.00,weatherlink.com 1.10,2013-10-12 13:56:00,
2013-10-12 09:11:00,63.6,60.0,30.15,WNW,287,0.0,-999.0,88,-99.99,,,0.00,weatherlink.com 1.10,2013-10-12 14:11:00,
2013-10-12 09:26:00,65.4,58.0,30.16,NNE,22,0.0,-999.0,78,-99.99,,,0.00,weatherlink.com 1.10,2013-10-12 14:26:00,
2013-10-12 09:41:00,66.6,60.0,30.15,NNE,26,0.0,-999.0,79,-99.99,,,0.00,weatherlink.com 1.10,2013-10-12 14:41:00,
2013-10-12 09:56:00,69.2,61.0,30.15,NNE,26,0.0,-999.0,76,-99.99,,,0.00,weatherlink.com 1.10,2013-10-12 14:56:00,
2013-10-12 10:11:00,71.0,62.0,30.15,NNE,26,0.0,-999.0,73,-99.99,,,0.00,weatherlink.com 1.10,2013-10-12 15:11:00,
2013-10-12 10:27:00,71.3,60.0,30.15,NNE,32,0.0,-999.0,68,-99.99,,,0.00,weatherlink.com 1.10,2013-10-12 15:27:00,
2013-10-12 10:42:00,72.2,60.0,30.15,North,355,0.0,-999.0,66,-99.99,,,0.00,weatherlink.com 1.10,2013-10-12 15:42:00,
2013-10-12 10:57:00,72.9,59.0,30.15,NW,304,1.0,-999.0,61,-99.99,,,0.00,weatherlink.com 1.10,2013-10-12 15:57:00,
2013-10-12 11:12:00,73.0,59.0,30.15,WNW,299,1.0,-999.0,62,-99.99,,,0.00,weatherlink.com 1.10,2013-10-12 16:12:00,
2013-10-12 11:27:00,73.9,59.0,30.16,WNW,303,6.0,-999.0,61,-99.99,,,0.00,weatherlink.com 1.10,2013-10-12 16:27:00,
2013-10-12 11:42:00,74.3,58.0,30.15,WNW,291,4.0,-999.0,58,-99.99,,,0.00,weatherlink.com 1.10,2013-10-12 16:42:00,
2013-10-12 11:57:00,74.4,58.0,30.15,West,279,6.0,-999.0,57,-99.99,,,0.00,weatherlink.com 1.10,2013-10-12 16:57:00,
2013-10-12 12:13:00,74.8,58.0,30.15,NW,317,3.0,-999.0,57,-99.99,,,0.00,weatherlink.com 1.10,2013-10-12 17:13:00,
2013-10-12 12:27:00,74.8,59.0,30.15,NW,316,4.0,-999.0,58,-99.99,,,0.00,weatherlink.com 1.10,2013-10-12 17:27:00,
2013-10-12 12:42:00,75.2,59.0,30.14,West,272,9.0,-999.0,58,-99.99,,,0.00,weatherlink.com 1.10,2013-10-12 17:42:00,
2013-10-12 12:57:00,75.3,59.0,30.14,WNW,303,5.0,-999.0,58,-99.99,,,0.00,weatherlink.com 1.10,2013-10-12 17:57:00,
2013-10-12 13:12:00,75.5,60.0,30.13,WNW,294,2.0,-999.0,59,-99.99,,,0.00,weatherlink.com 1.10,2013-10-12 18:12:00,
2013-10-12 13:27:00,76.0,59.0,30.13,NNE,30,4.0,-999.0,55,-99.99,,,0.00,weatherlink.com 1.10,2013-10-12 18:27:00,
2013-10-12 13:42:00,76.1,59.0,30.12,NNW,329,7.0,-999.0,56,-99.99,,,0.00,weatherlink.com 1.10,2013-10-12 18:42:00,
2013-10-12 13:57:00,76.1,59.0,30.12,NW,325,1.0,-999.0,56,-99.99,,,0.00,weatherlink.com 1.10,2013-10-12 18:57:00,
2013-10-12 14:12:00,76.1,59.0,30.12,NW,322,1.0,-999.0,56,-99.99,,,0.00,weatherlink.com 1.10,2013-10-12 19:12:00,
2013-10-12 14:27:00,75.9,59.0,30.12,NNW,335,3.0,-999.0,57,-99.99,,,0.00,weatherlink.com 1.10,2013-10-12 19:27:00,
2013-10-12 14:42:00,77.1,59.0,30.12,NNW,346,5.0,-999.0,53,-99.99,,,0.00,weatherlink.com 1.10,2013-10-12 19:42:00,
2013-10-12 14:57:00,76.8,59.0,30.12,WNW,298,2.0,-999.0,55,-99.99,,,0.00,weatherlink.com 1.10,2013-10-12 19:57:00,
2013-10-12 15:12:00,76.3,59.0,30.12,West,259,1.0,-999.0,55,-99.99,,,0.00,weatherlink.com 1.10,2013-10-12 20:12:00,
2013-10-12 15:27:00,77.3,60.0,30.11,NNW,330,2.0,-999.0,55,-99.99,,,0.00,weatherlink.com 1.10,2013-10-12 20:27:00,
2013-10-12 15:42:00,77.5,59.0,30.11,NW,315,5.0,-999.0,54,-99.99,,,0.00,weatherlink.com 1.10,2013-10-12 20:42:00,
2013-10-12 15:57:00,77.0,60.0,30.11,WNW,296,1.0,-999.0,55,-99.99,,,0.00,weatherlink.com 1.10,2013-10-12 20:57:00,
2013-10-12 16:12:00,77.6,60.0,30.11,WNW,286,0.0,-999.0,54,-99.99,,,0.00,weatherlink.com 1.10,2013-10-12 21:12:00,
2013-10-12 16:27:00,78.0,60.0,30.11,WNW,302,1.0,-999.0,54,-99.99,,,0.00,weatherlink.com 1.10,2013-10-12 21:27:00,
2013-10-12 16:42:00,77.4,59.0,30.11,NNW,342,6.0,-999.0,53,-99.99,,,0.00,weatherlink.com 1.10,2013-10-12 21:42:00,
2013-10-12 16:57:00,77.0,60.0,30.11,NW,306,2.0,-999.0,55,-99.99,,,0.00,weatherlink.com 1.10,2013-10-12 21:57:00,
2013-10-12 17:12:00,75.7,60.0,30.11,NNW,327,0.0,-999.0,59,-99.99,,,0.00,weatherlink.com 1.10,2013-10-12 22:12:00,
2013-10-12 17:27:00,74.7,60.0,30.11,NNW,327,0.0,-999.0,61,-99.99,,,0.00,weatherlink.com 1.10,2013-10-12 22:27:00,
2013-10-12 17:42:00,74.6,61.0,30.11,NNW,327,0.0,-999.0,63,-99.99,,,0.00,weatherlink.com 1.10,2013-10-12 22:42:00,
2013-10-12 17:57:00,74.2,61.0,30.10,NNW,327,0.0,-999.0,63,-99.99,,,0.00,weatherlink.com 1.10,2013-10-12 22:57:00,
2013-10-12 18:12:00,73.1,61.0,30.10,NNW,327,0.0,-999.0,65,-99.99,,,0.00,weatherlink.com 1.10,2013-10-12 23:12:00,
2013-10-12 18:27:00,72.0,60.0,30.10,NNW,327,0.0,-999.0,67,-99.99,,,0.00,weatherlink.com 1.10,2013-10-12 23:27:00,
2013-10-12 18:42:00,71.2,60.0,30.10,NNW,327,0.0,-999.0,68,-99.99,,,0.00,weatherlink.com 1.10,2013-10-12 23:42:00,
2013-10-12 18:57:00,71.0,60.0,30.10,NNW,327,0.0,-999.0,68,-99.99,,,0.00,weatherlink.com 1.10,2013-10-12 23:57:00,
2013-10-12 19:12:00,70.3,60.0,30.09,NNW,327,0.0,-999.0,70,-99.99,,,0.00,weatherlink.com 1.10,2013-10-13 00:12:00,
2013-10-12 19:27:00,69.5,59.0,30.10,NNW,327,0.0,-999.0,70,-99.99,,,0.00,weatherlink.com 1.10,2013-10-13 00:27:00,
2013-10-12 19:57:00,66.7,59.0,30.11,NNW,327,0.0,-999.0,76,-99.99,,,0.00,weatherlink.com 1.10,2013-10-13 00:57:00,
2013-10-12 20:12:00,66.4,59.0,30.12,NNW,327,0.0,-999.0,78,-99.99,,,0.00,weatherlink.com 1.10,2013-10-13 01:12:00,
2013-10-12 20:27:00,66.2,60.0,30.13,NNW,327,0.0,-999.0,79,-99.99,,,0.00,weatherlink.com 1.10,2013-10-13 01:27:00,
2013-10-12 20:42:00,65.6,60.0,30.13,NNW,327,0.0,-999.0,81,-99.99,,,0.00,weatherlink.com 1.10,2013-10-13 01:42:00,
2013-10-12 20:57:00,65.1,60.0,30.14,NNW,327,0.0,-999.0,84,-99.99,,,0.00,weatherlink.com 1.10,2013-10-13 01:57:00,
2013-10-12 21:12:00,64.5,60.0,30.15,NNW,327,0.0,-999.0,85,-99.99,,,0.00,weatherlink.com 1.10,2013-10-13 02:12:00,
2013-10-12 21:27:00,64.0,60.0,30.15,NNW,327,0.0,-999.0,86,-99.99,,,0.00,weatherlink.com 1.10,2013-10-13 02:27:00,
2013-10-12 21:42:00,63.1,59.0,30.15,NE,42,0.0,-999.0,87,-99.99,,,0.00,weatherlink.com 1.10,2013-10-13 02:42:00,
2013-10-12 21:57:00,62.5,59.0,30.16,NE,42,0.0,-999.0,88,-99.99,,,0.00,weatherlink.com 1.10,2013-10-13 02:57:00,
2013-10-12 22:12:00,61.8,59.0,30.16,NE,42,0.0,-999.0,89,-99.99,,,0.00,weatherlink.com 1.10,2013-10-13 03:12:00,
2013-10-12 22:27:00,61.9,59.0,30.16,NE,42,0.0,-999.0,90,-99.99,,,0.00,weatherlink.com 1.10,2013-10-13 03:27:00,
2013-10-12 22:42:00,62.3,59.0,30.16,NE,42,0.0,-999.0,89,-99.99,,,0.00,weatherlink.com 1.10,2013-10-13 03:42:00,
2013-10-12 22:57:00,62.7,59.0,30.16,NE,42,0.0,-999.0,88,-99.99,,,0.00,weatherlink.com 1.10,2013-10-13 03:57:00,
2013-10-12 23:12:00,62.6,59.0,30.16,NE,42,0.0,-999.0,87,-99.99,,,0.00,weatherlink.com 1.10,2013-10-13 04:12:00,
2013-10-12 23:27:00,62.8,59.0,30.16,NE,42,0.0,-999.0,87,-99.99,,,0.00,weatherlink.com 1.10,2013-10-13 04:27:00,
2013-10-12 23:42:00,61.8,59.0,30.16,NE,42,0.0,-999.0,89,-99.99,,,0.00,weatherlink.com 1.10,2013-10-13 04:42:00,
2013-10-12 23:57:00,61.7,59.0,30.17,NE,42,0.0,-999.0,90,-99.99,,,0.00,weatherlink.com 1.10,2013-10-13 04:57:00,